Palo Alto, CA

6:55 PM PDT on September 01, 2015 (GMT -0700)
Old Palo Alto (Waverley St) | | Change Station
CLOSE
Current Station
Personal Weather Station
Location: Palo Alto, CA
Elevation: 27 ft
Nearby Weather Stations

Elev 27 ft 37.44 °N, 122.14 °W | Updated 4 seconds ago

Partly Cloudy
Partly Cloudy
70.7 °F
Feels Like 77 °F
N
2.4
Wind Variable Wind from WSW
Gusts 10.6 mph

Today
High -- | Low -- °F
--% Chance of Precip.
Yesterday
High -- | Low -- °F
Precip. -- in
6:38 AM 7:37 PM
Waning Gibbous, 84% visible
Pressure 29.84 in
Visibility 20.0 miles
Clouds Few 15000 ft
Heat Index 77 °F
Dew Point 52 °F
Humidity 52%
Rainfall 0.00 in
Snow Depth Not available.
UV 2 out of 12
Pollen 6.90 out of 12
Air Quality Not available.
Flu Activity Not available.
METAR KPAO 020047Z 26015KT 20SM FEW150 25/13 A2984
Pressure 29.84 in
Visibility 20.0 miles
Clouds Few 15000 ft
Heat Index 77 °F
Dew Point 52 °F
Humidity 52%
Rainfall 0.00 in
Snow Depth Not available.
UV 2 out of 12
Pollen 6.90 out of 12
Air Quality Not available.
Flu Activity Not available.
METAR KPAO 020047Z 26015KT 20SM FEW150 25/13 A2984

10-Day Weather Forecast

×

Almanac

Astronomy

Sep. 01, 2015 Rise Set
Actual Time
Civil Twilight
Nautical Twilight
Astronomical Twilight
Moon
Length of Visible Light
Length of Day
Tomorrow will be .
, % of the Moon is Illuminated

Today's Extremes

State Highs State Lows

Community

WunderPhotos

Upload Photos

1,851,673 photos uploaded!

WunderBlogs® & News

Nearby

Air Quality

  Air Quality AQ Index Pollutant
Not available.

Snow Depth

Station Depth Elevation

Earthquake Activity

City Distance Mag. Time & Date
Minimum magnitude displayed is 2.5.

Coastal Water Temperatures

Place Temperature

Stations

Nearby Weather Stations

Station Location Temp. Windchill Dew Point Humidity Wind Precip. Elev Updated Type